Time;durP1;ratioP1;P1;durP2;ratioP2;P2;SDS_P1;SDS_P2;PMS_P1;PMS_P2;Temp;Humidity;BMP_temperature;BMP_pressure;BME280_temperature;BME280_humidity;BME280_pressure;Samples;Min_cycle;Max_cycle;Signal;HPM_P1;HPM_P2
2022/05/26 00:01:24;;;;;;;3.33;1.67;;;14.40;99.90;;;;;;5031222;28;20068;-67
2022/05/26 00:03:53;;;;;;;4.72;1.30;;;14.50;99.90;;;;;;5030976;28;20079;-67
2022/05/26 00:06:23;;;;;;;3.63;1.50;;;14.50;99.90;;;;;;5031286;28;20527;-67
2022/05/26 00:08:51;;;;;;;2.72;1.30;;;14.60;99.90;;;;;;5030757;28;20478;-66
2022/05/26 00:11:28;;;;;;;2.85;1.15;;;14.50;99.90;;;;;;5029439;28;20037;-68
2022/05/26 00:13:57;;;;;;;2.25;1.20;;;14.40;99.90;;;;;;5031769;28;20037;-67
2022/05/26 00:16:24;;;;;;;3.58;1.40;;;14.40;99.90;;;;;;5031288;28;20053;-67
2022/05/26 00:18:52;;;;;;;1.98;1.20;;;14.40;99.90;;;;;;5031708;28;20380;-67
2022/05/26 00:21:19;;;;;;;3.80;1.20;;;14.40;99.90;;;;;;5030841;28;20459;-67
2022/05/26 00:23:46;;;;;;;4.38;1.30;;;14.40;99.90;;;;;;5031259;28;20103;-67
2022/05/26 00:26:14;;;;;;;2.58;1.15;;;14.30;99.90;;;;;;5030905;28;20052;-67
2022/05/26 00:28:41;;;;;;;4.72;1.30;;;14.40;99.90;;;;;;5031491;28;20042;-67
2022/05/26 00:31:08;;;;;;;3.17;1.33;;;14.30;99.90;;;;;;5028903;28;20072;-66
2022/05/26 00:33:36;;;;;;;4.72;1.35;;;14.30;99.90;;;;;;5031204;28;20084;-66
2022/05/26 00:36:06;;;;;;;3.58;1.30;;;14.30;99.90;;;;;;5031154;28;20477;-66
2022/05/26 00:38:33;;;;;;;3.05;1.13;;;14.30;99.90;;;;;;5030828;28;20049;-66
2022/05/26 00:41:03;;;;;;;3.08;1.33;;;14.30;99.90;;;;;;5030975;28;20046;-66
2022/05/26 00:43:31;;;;;;;4.45;1.33;;;14.30;99.90;;;;;;5030096;28;20052;-66
2022/05/26 00:46:30;;;;;;;4.28;1.40;;;14.20;99.90;;;;;;5030317;28;20139;-66
2022/05/26 00:49:00;;;;;;;2.92;1.20;;;14.20;99.90;;;;;;5030455;28;20051;-66
2022/05/26 00:51:32;;;;;;;2.78;1.30;;;14.20;99.90;;;;;;5030739;28;20132;-66
2022/05/26 00:54:06;;;;;;;2.35;1.45;;;14.20;99.90;;;;;;5029397;28;20615;-66
2022/05/26 00:56:49;;;;;;;6.50;1.45;;;14.10;99.90;;;;;;5029294;28;20076;-66
2022/05/26 00:59:27;;;;;;;2.17;1.10;;;14.10;99.90;;;;;;5027904;28;20064;-66
2022/05/26 01:01:58;;;;;;;3.03;1.30;;;14.10;99.90;;;;;;5037154;28;20119;-66
2022/05/26 01:04:30;;;;;;;5.38;1.20;;;14.10;99.90;;;;;;5029743;28;20065;-66
2022/05/26 01:07:23;;;;;;;2.90;1.52;;;14.10;99.90;;;;;;5030479;28;20064;-67
2022/05/26 01:09:50;;;;;;;3.47;1.48;;;14.20;99.90;;;;;;5019180;28;20060;-67
2022/05/26 01:12:19;;;;;;;2.40;1.38;;;14.20;99.90;;;;;;5028711;28;20111;-67
2022/05/26 01:14:53;;;;;;;3.53;1.40;;;14.10;99.90;;;;;;5029860;28;20041;-66
2022/05/26 01:17:42;;;;;;;2.88;1.60;;;14.20;99.90;;;;;;5030060;28;20038;-68
2022/05/26 01:20:27;;;;;;;2.28;1.17;;;14.20;99.90;;;;;;5030394;28;20080;-67
2022/05/26 01:23:24;;;;;;;3.45;1.30;;;14.30;99.90;;;;;;5028158;28;20050;-67
2022/05/26 01:26:06;;;;;;;2.00;1.00;;;14.30;99.90;;;;;;5030032;28;20077;-67
2022/05/26 01:29:06;;;;;;;3.00;1.20;;;14.30;99.90;;;;;;5014989;28;20103;-67
2022/05/26 01:31:59;;;;;;;3.13;0.98;;;14.40;99.90;;;;;;5042632;28;20041;-67
2022/05/26 01:34:53;;;;;;;4.82;1.40;;;14.30;99.90;;;;;;5048441;28;20075;-66
2022/05/26 01:37:48;;;;;;;5.00;1.20;;;14.30;99.90;;;;;;5026336;28;20114;-67
2022/05/26 01:40:43;;;;;;;3.47;1.27;;;14.40;99.90;;;;;;5019699;28;20055;-66
2022/05/26 01:43:25;;;;;;;3.35;1.10;;;14.30;99.90;;;;;;5032523;28;20037;-67
2022/05/26 01:46:18;;;;;;;4.45;1.15;;;14.40;99.90;;;;;;5040746;28;20512;-68
2022/05/26 01:49:08;;;;;;;2.75;1.25;;;14.40;99.90;;;;;;5039089;28;20091;-67
2022/05/26 01:51:46;;;;;;;4.15;1.30;;;14.30;99.90;;;;;;5029645;28;20037;-67
2022/05/26 01:54:35;;;;;;;3.53;1.27;;;14.30;99.90;;;;;;5038197;28;20050;-67
2022/05/26 01:57:30;;;;;;;3.03;1.23;;;14.30;99.90;;;;;;5025522;28;20073;-66
2022/05/26 02:00:07;;;;;;;3.22;1.40;;;14.30;99.90;;;;;;5030467;28;20103;-67
2022/05/26 02:03:01;;;;;;;2.95;1.27;;;14.40;99.90;;;;;;5014250;28;20574;-67
2022/05/26 02:05:33;;;;;;;2.25;1.10;;;14.50;99.90;;;;;;5029399;28;20734;-67
2022/05/26 02:08:15;;;;;;;1.83;1.02;;;14.50;99.90;;;;;;5030009;28;20867;-67
2022/05/26 02:10:48;;;;;;;3.38;1.10;;;14.50;99.90;;;;;;5035802;28;20045;-67
2022/05/26 02:13:44;;;;;;;3.85;1.05;;;14.50;99.90;;;;;;5040595;28;20041;-67
2022/05/26 02:16:18;;;;;;;2.10;1.17;;;14.60;99.90;;;;;;5037352;28;20135;-67
2022/05/26 02:19:11;;;;;;;3.25;1.08;;;14.60;99.90;;;;;;5028574;28;20488;-67
2022/05/26 02:21:49;;;;;;;3.70;1.30;;;14.60;99.90;;;;;;5027328;28;20049;-66
2022/05/26 02:24:25;;;;;;;3.10;1.17;;;14.50;99.90;;;;;;5038955;28;20084;-66
2022/05/26 02:26:53;;;;;;;3.92;1.35;;;14.60;99.90;;;;;;5032963;28;20065;-66
2022/05/26 02:32:09;;;;;;;4.47;1.05;;;14.60;99.90;;;;;;5020176;28;20472;-67
2022/05/26 02:34:39;;;;;;;3.53;1.30;;;14.70;99.90;;;;;;5029880;28;20492;-66
2022/05/26 02:37:09;;;;;;;3.25;1.63;;;14.70;99.90;;;;;;5034543;28;20408;-67
2022/05/26 02:39:36;;;;;;;4.90;1.30;;;14.70;99.90;;;;;;5029183;28;20215;-67
2022/05/26 02:42:05;;;;;;;7.03;1.88;;;14.70;99.90;;;;;;5026431;28;20045;-67
2022/05/26 02:44:33;;;;;;;2.60;1.13;;;14.70;99.90;;;;;;5041421;28;20511;-67
2022/05/26 02:47:17;;;;;;;2.65;1.33;;;14.70;99.90;;;;;;5033990;28;20528;-67
2022/05/26 02:50:02;;;;;;;5.90;1.20;;;14.70;99.90;;;;;;5030375;28;20118;-67
2022/05/26 02:52:48;;;;;;;2.63;1.10;;;14.70;99.90;;;;;;5029807;28;20124;-67
2022/05/26 02:55:41;;;;;;;2.00;1.00;;;14.70;99.90;;;;;;5041775;28;20049;-67
2022/05/26 02:58:37;;;;;;;2.30;1.20;;;14.70;99.90;;;;;;5041525;28;20103;-67
2022/05/26 03:01:25;;;;;;;3.58;1.17;;;14.70;99.90;;;;;;5027997;28;20400;-67
2022/05/26 03:04:02;;;;;;;4.03;1.50;;;14.70;99.90;;;;;;5039576;28;20512;-67
2022/05/26 03:06:42;;;;;;;4.53;1.00;;;14.70;99.90;;;;;;5019585;28;20046;-66
2022/05/26 03:09:10;;;;;;;3.75;1.27;;;14.70;99.90;;;;;;5056868;28;20072;-68
2022/05/26 03:11:56;;;;;;;2.13;1.10;;;14.60;99.90;;;;;;5024914;28;20129;-67
2022/05/26 03:14:25;;;;;;;3.78;1.30;;;14.70;99.90;;;;;;5009152;28;20458;-67
2022/05/26 03:16:53;;;;;;;3.45;1.08;;;14.60;99.90;;;;;;5029413;28;20538;-66
2022/05/26 03:19:21;;;;;;;3.22;1.17;;;14.50;99.90;;;;;;5032081;28;20046;-66
2022/05/26 03:21:49;;;;;;;2.38;1.20;;;14.50;99.90;;;;;;5031694;28;20389;-66
2022/05/26 03:24:16;;;;;;;4.97;1.50;;;14.60;99.90;;;;;;5032658;28;20520;-66
2022/05/26 03:26:43;;;;;;;4.10;1.20;;;14.50;99.90;;;;;;5029501;28;20117;-68
2022/05/26 03:29:11;;;;;;;4.60;1.50;;;14.50;99.90;;;;;;5022690;28;21004;-67
2022/05/26 03:31:38;;;;;;;3.50;1.13;;;14.50;99.90;;;;;;5012766;28;20026;-68
2022/05/26 03:42:23;;;;;;;4.85;1.40;;;14.50;99.90;;;;;;5028284;28;20037;-66
2022/05/26 03:44:50;;;;;;;2.55;1.27;;;14.60;99.90;;;;;;5036347;28;20132;-67
2022/05/26 03:47:17;;;;;;;3.17;1.17;;;14.60;99.90;;;;;;5029484;28;20543;-67
2022/05/26 03:49:45;;;;;;;4.72;1.50;;;14.60;99.90;;;;;;5029490;28;20045;-67
2022/05/26 03:52:13;;;;;;;2.35;1.17;;;14.60;99.90;;;;;;5031827;28;20041;-67
2022/05/26 03:54:41;;;;;;;3.38;1.13;;;14.60;99.90;;;;;;5048167;28;20550;-67
2022/05/26 03:57:09;;;;;;;2.70;1.17;;;14.60;99.90;;;;;;5043201;28;20084;-67
2022/05/26 03:59:40;;;;;;;3.13;1.42;;;14.50;99.90;;;;;;5039759;28;20392;-67
2022/05/26 04:02:07;;;;;;;4.43;1.20;;;14.50;99.90;;;;;;5025087;28;20170;-68
2022/05/26 04:04:35;;;;;;;2.53;1.00;;;14.50;99.90;;;;;;5030967;28;20076;-67
2022/05/26 04:07:03;;;;;;;6.18;1.25;;;14.50;99.90;;;;;;5029429;28;20534;-67
2022/05/26 04:09:30;;;;;;;3.47;1.35;;;14.50;99.90;;;;;;5030054;28;20492;-67
2022/05/26 04:11:57;;;;;;;6.28;1.58;;;14.50;99.90;;;;;;5040441;28;20913;-67
2022/05/26 04:14:24;;;;;;;3.50;1.35;;;14.40;99.90;;;;;;5040502;28;20537;-67
2022/05/26 04:16:52;;;;;;;3.30;1.20;;;14.40;99.90;;;;;;5033457;28;20598;-68
2022/05/26 04:19:19;;;;;;;2.38;1.10;;;14.50;99.90;;;;;;5030563;28;20111;-67
2022/05/26 04:24:32;;;;;;;3.03;1.20;;;14.60;99.90;;;;;;5034537;28;20041;-66
2022/05/26 04:26:59;;;;;;;3.05;1.20;;;14.60;99.90;;;;;;5031972;28;20560;-67
2022/05/26 04:29:28;;;;;;;2.80;1.20;;;14.70;99.90;;;;;;5034354;28;20054;-67
2022/05/26 04:31:55;;;;;;;4.72;1.25;;;14.70;99.90;;;;;;5032607;28;20377;-67
2022/05/26 04:34:22;;;;;;;5.72;1.30;;;14.70;99.90;;;;;;5033553;28;20658;-67
2022/05/26 04:36:50;;;;;;;5.43;1.30;;;14.70;99.90;;;;;;5030571;28;20053;-67
2022/05/26 04:39:18;;;;;;;4.82;1.52;;;14.70;99.90;;;;;;5032845;28;20100;-67
2022/05/26 04:41:46;;;;;;;3.50;1.30;;;14.70;99.90;;;;;;5032336;28;20582;-67
2022/05/26 04:44:16;;;;;;;1.95;1.17;;;14.90;99.90;;;;;;5037460;28;20520;-67
2022/05/26 04:46:44;;;;;;;3.00;1.20;;;15.00;99.90;;;;;;5040187;28;20128;-67
2022/05/26 04:49:11;;;;;;;3.10;1.30;;;15.00;99.90;;;;;;5034910;28;20091;-67
2022/05/26 04:51:39;;;;;;;4.28;1.40;;;15.00;99.90;;;;;;5041899;28;20051;-67
2022/05/26 04:54:07;;;;;;;4.53;1.38;;;15.00;99.90;;;;;;5030948;28;20047;-67
2022/05/26 04:56:35;;;;;;;2.65;1.35;;;15.10;99.90;;;;;;5040888;28;20079;-67
2022/05/26 04:59:04;;;;;;;2.70;1.30;;;15.20;99.90;;;;;;5032095;28;20128;-67
2022/05/26 05:01:32;;;;;;;3.45;1.20;;;15.30;99.90;;;;;;5037467;28;20049;-67
2022/05/26 05:04:03;;;;;;;1.80;1.13;;;15.40;99.90;;;;;;5030493;28;20412;-66
2022/05/26 05:06:30;;;;;;;4.13;1.20;;;15.40;99.90;;;;;;5030647;28;20565;-66
2022/05/26 05:08:57;;;;;;;5.88;1.52;;;15.50;99.90;;;;;;5032239;28;20132;-66
2022/05/26 05:11:25;;;;;;;3.70;1.20;;;15.60;99.90;;;;;;5024617;28;20045;-66
2022/05/26 05:13:53;;;;;;;3.55;1.25;;;15.60;99.90;;;;;;5026593;28;20132;-67
2022/05/26 05:16:31;;;;;;;6.00;1.45;;;15.60;99.90;;;;;;5028140;28;20596;-67
2022/05/26 05:18:58;;;;;;;2.63;1.10;;;15.50;99.90;;;;;;5022904;28;20129;-68
2022/05/26 05:21:47;;;;;;;2.47;1.10;;;15.50;99.90;;;;;;5030304;28;20096;-68
2022/05/26 05:24:31;;;;;;;2.75;1.27;;;15.50;99.90;;;;;;5026720;28;20057;-66
2022/05/26 05:27:11;;;;;;;5.03;1.05;;;15.60;99.90;;;;;;5020336;28;20050;-66
2022/05/26 05:29:40;;;;;;;2.63;1.20;;;15.40;99.90;;;;;;5030221;28;20056;-66
2022/05/26 05:32:18;;;;;;;3.65;1.13;;;15.50;99.90;;;;;;5029911;28;20088;-66
2022/05/26 05:34:53;;;;;;;5.95;1.40;;;15.50;99.90;;;;;;5028814;28;20556;-66
2022/05/26 05:37:21;;;;;;;6.18;1.65;;;15.70;99.90;;;;;;5031699;28;20061;-66
2022/05/26 05:39:48;;;;;;;3.67;1.10;;;15.70;99.90;;;;;;5030973;28;20562;-67
2022/05/26 05:42:16;;;;;;;3.10;1.40;;;15.80;99.90;;;;;;5028056;28;20125;-67
2022/05/26 05:44:43;;;;;;;3.15;1.08;;;15.80;99.90;;;;;;5031461;28;20160;-66
2022/05/26 05:47:11;;;;;;;1.67;1.13;;;15.90;99.90;;;;;;5024867;28;20484;-67
2022/05/26 05:49:38;;;;;;;4.22;1.40;;;16.00;99.90;;;;;;5034248;28;20543;-67
2022/05/26 05:52:12;;;;;;;3.78;1.23;;;16.00;99.90;;;;;;5030468;28;20048;-67
2022/05/26 05:54:39;;;;;;;3.33;1.35;;;16.20;99.90;;;;;;5035145;28;20509;-67
2022/05/26 05:57:07;;;;;;;5.05;1.10;;;16.20;99.90;;;;;;5010451;28;20072;-68
2022/05/26 05:59:35;;;;;;;6.30;1.20;;;16.10;99.90;;;;;;5030653;28;20507;-67
2022/05/26 06:02:02;;;;;;;5.78;1.80;;;16.10;99.90;;;;;;5026799;28;20570;-67
2022/05/26 06:04:50;;;;;;;7.50;4.05;;;16.20;99.90;;;;;;5027087;28;20132;-66
2022/05/26 06:07:19;;;;;;;5.47;1.10;;;16.20;99.90;;;;;;5028517;28;20069;-69
2022/05/26 06:09:48;;;;;;;2.70;1.08;;;16.20;99.90;;;;;;5030090;28;20071;-67
2022/05/26 06:12:16;;;;;;;2.13;1.00;;;16.20;99.90;;;;;;5028551;28;20075;-68
2022/05/26 06:14:43;;;;;;;1.88;0.95;;;16.30;99.90;;;;;;5030036;28;20049;-67
2022/05/26 06:17:12;;;;;;;2.83;1.30;;;16.30;99.90;;;;;;5036721;28;20061;-68
2022/05/26 06:19:40;;;;;;;4.70;1.30;;;16.30;99.90;;;;;;5028919;28;20135;-68
2022/05/26 06:22:12;;;;;;;3.53;1.15;;;16.40;99.90;;;;;;5037473;28;20112;-69
2022/05/26 06:24:40;;;;;;;6.07;1.00;;;16.40;99.90;;;;;;5045470;28;20102;-68
2022/05/26 06:29:56;;;;;;;5.05;1.17;;;16.60;99.90;;;;;;5034645;28;20140;-67
2022/05/26 06:38:00;;;;;;;4.72;1.10;;;16.70;99.90;;;;;;5014425;28;20505;-69
2022/05/26 06:40:28;;;;;;;4.03;1.20;;;16.80;99.90;;;;;;5041329;28;20103;-68
2022/05/26 06:42:56;;;;;;;3.22;1.10;;;16.80;99.90;;;;;;5044002;28;20456;-69
2022/05/26 06:45:23;;;;;;;4.60;0.90;;;16.80;99.90;;;;;;5023342;28;20089;-68
2022/05/26 06:47:51;;;;;;;3.83;1.20;;;16.70;99.90;;;;;;5045148;28;20037;-68
2022/05/26 06:50:18;;;;;;;3.92;0.80;;;16.70;99.90;;;;;;5040196;28;20037;-67
2022/05/26 06:52:46;;;;;;;5.25;1.00;;;16.70;99.90;;;;;;5028603;28;20110;-67
2022/05/26 06:55:13;;;;;;;2.08;0.90;;;16.80;99.90;;;;;;5019335;28;20050;-68
2022/05/26 06:57:41;;;;;;;6.13;1.13;;;17.00;99.90;;;;;;5029118;28;20148;-68
2022/05/26 07:00:09;;;;;;;6.55;1.60;;;17.20;99.90;;;;;;5037934;28;20419;-69
2022/05/26 07:02:38;;;;;;;3.67;1.08;;;17.30;99.90;;;;;;5031567;28;20408;-66
2022/05/26 07:05:05;;;;;;;4.88;0.90;;;17.50;99.90;;;;;;5019604;28;20060;-67
2022/05/26 07:07:35;;;;;;;2.08;0.77;;;17.60;99.90;;;;;;5028638;28;20046;-68
2022/05/26 07:10:04;;;;;;;3.67;0.90;;;17.50;99.90;;;;;;5039144;28;20497;-68
2022/05/26 07:12:35;;;;;;;5.32;1.02;;;17.60;99.90;;;;;;5025018;28;20111;-68
2022/05/26 07:15:03;;;;;;;4.63;0.80;;;17.80;99.90;;;;;;5021620;28;20041;-68
2022/05/26 07:17:31;;;;;;;2.50;0.85;;;17.80;99.90;;;;;;5033772;28;20071;-66
2022/05/26 07:19:58;;;;;;;3.45;0.90;;;18.00;99.90;;;;;;5035613;28;20500;-68
2022/05/26 07:22:25;;;;;;;2.17;0.70;;;18.00;99.90;;;;;;5032509;28;20049;-67
2022/05/26 07:24:53;;;;;;;2.90;1.00;;;18.00;99.90;;;;;;5028097;28;20048;-68
2022/05/26 07:27:20;;;;;;;4.13;1.00;;;17.80;99.90;;;;;;5032186;28;20528;-68
2022/05/26 07:29:53;;;;;;;5.03;0.85;;;17.90;99.90;;;;;;5030688;28;20167;-67
2022/05/26 07:32:22;;;;;;;3.05;1.25;;;17.90;99.90;;;;;;5033723;28;20478;-68
2022/05/26 07:34:50;;;;;;;2.95;0.90;;;18.00;99.90;;;;;;5025203;28;20038;-68
2022/05/26 07:42:50;;;;;;;2.28;0.95;;;18.10;99.90;;;;;;5028135;28;20504;-67
2022/05/26 07:45:17;;;;;;;1.52;0.77;;;18.00;99.90;;;;;;5031878;28;20418;-68
2022/05/26 07:47:45;;;;;;;1.95;0.75;;;18.30;99.90;;;;;;5028999;28;20515;-69
2022/05/26 07:50:19;;;;;;;7.70;1.15;;;18.30;99.90;;;;;;5036943;28;20056;-69
2022/05/26 07:52:48;;;;;;;2.67;0.82;;;18.30;99.90;;;;;;5027450;28;20384;-68
2022/05/26 07:55:18;;;;;;;3.08;1.10;;;18.30;99.90;;;;;;5033212;28;20476;-68
2022/05/26 07:57:46;;;;;;;2.53;1.02;;;18.40;99.90;;;;;;5031905;28;20581;-68
2022/05/26 08:00:15;;;;;;;2.75;1.17;;;18.40;99.90;;;;;;5033831;28;20496;-68
2022/05/26 08:02:42;;;;;;;5.80;0.98;;;18.40;99.90;;;;;;5032017;28;20487;-67
2022/05/26 08:05:11;;;;;;;3.42;0.95;;;18.10;99.90;;;;;;5029982;28;20548;-67
2022/05/26 08:07:39;;;;;;;2.25;0.80;;;18.20;99.90;;;;;;5031088;28;20046;-67
2022/05/26 08:10:08;;;;;;;2.00;0.70;;;18.40;99.90;;;;;;5039169;28;20147;-68
2022/05/26 08:12:35;;;;;;;1.65;0.88;;;18.50;99.90;;;;;;5032673;28;20099;-69
2022/05/26 08:15:04;;;;;;;2.58;0.98;;;18.40;99.90;;;;;;5037698;28;20051;-67
2022/05/26 08:17:31;;;;;;;1.83;0.80;;;18.40;99.90;;;;;;5036673;28;20104;-68
2022/05/26 08:19:59;;;;;;;2.33;1.00;;;18.60;99.90;;;;;;5047765;28;20524;-68
2022/05/26 08:22:27;;;;;;;1.48;0.65;;;18.60;99.90;;;;;;5040543;28;20481;-69
2022/05/26 08:24:56;;;;;;;1.42;0.77;;;18.70;99.90;;;;;;5028970;28;20103;-69
2022/05/26 08:27:24;;;;;;;1.83;0.75;;;18.70;99.90;;;;;;5031254;28;20073;-68
2022/05/26 08:29:54;;;;;;;3.40;0.93;;;18.90;99.90;;;;;;5033114;28;20124;-69
2022/05/26 08:32:22;;;;;;;1.65;0.73;;;18.80;99.90;;;;;;5033954;28;20050;-68
2022/05/26 08:34:50;;;;;;;3.13;1.00;;;18.40;99.90;;;;;;5021521;28;20064;-68
2022/05/26 08:37:20;;;;;;;1.48;0.75;;;18.80;99.90;;;;;;5029435;28;20069;-68
2022/05/26 08:39:48;;;;;;;1.50;0.70;;;19.00;99.90;;;;;;5031287;28;20134;-68
2022/05/26 08:42:21;;;;;;;3.53;0.60;;;18.60;99.90;;;;;;5030860;28;20041;-68
2022/05/26 08:44:50;;;;;;;1.70;0.68;;;18.70;99.90;;;;;;5039979;28;20120;-68
2022/05/26 08:47:23;;;;;;;2.83;0.80;;;18.60;99.90;;;;;;5036457;28;20053;-69
2022/05/26 08:49:56;;;;;;;1.30;0.60;;;18.50;99.90;;;;;;5040935;28;20511;-69
2022/05/26 08:52:37;;;;;;;3.03;0.82;;;18.50;99.90;;;;;;5026520;28;20044;-69
2022/05/26 08:55:24;;;;;;;3.42;0.90;;;18.60;99.90;;;;;;5027160;28;20037;-67
2022/05/26 08:58:01;;;;;;;3.28;0.80;;;18.60;99.90;;;;;;5028421;28;20485;-67
2022/05/26 09:00:28;;;;;;;3.08;1.00;;;18.70;99.90;;;;;;5039370;28;20469;-67
2022/05/26 09:02:59;;;;;;;4.55;0.80;;;18.90;99.90;;;;;;5030076;28;20049;-67
2022/05/26 09:05:38;;;;;;;2.40;0.93;;;19.00;99.90;;;;;;5033743;28;20051;-67
2022/05/26 09:13:54;;;;;;;1.52;0.60;;;19.40;99.90;;;;;;5030907;28;20103;-68
2022/05/26 09:16:22;;;;;;;2.45;0.70;;;19.20;99.90;;;;;;5025623;28;20041;-69
2022/05/26 09:19:11;;;;;;;2.42;0.75;;;19.10;99.90;;;;;;5044942;28;20098;-68
2022/05/26 09:21:39;;;;;;;1.25;0.60;;;19.20;99.90;;;;;;5020742;28;20056;-69
2022/05/26 09:24:15;;;;;;;2.28;0.90;;;19.30;99.90;;;;;;5030648;28;20063;-68
2022/05/26 09:26:59;;;;;;;0.95;0.70;;;19.60;99.90;;;;;;5038162;28;20044;-69
2022/05/26 09:29:30;;;;;;;1.75;0.73;;;19.60;99.90;;;;;;5042940;28;20045;-69
2022/05/26 09:31:59;;;;;;;2.67;0.70;;;19.60;99.90;;;;;;5032979;28;20484;-69
2022/05/26 09:35:10;;;;;;;2.67;1.00;;;19.30;99.90;;;;;;5029740;28;20049;-68
2022/05/26 09:37:45;;;;;;;2.17;0.80;;;19.40;99.90;;;;;;5007225;28;20042;-68
2022/05/26 09:40:28;;;;;;;2.78;0.60;;;19.50;99.90;;;;;;5041335;28;20283;-69
2022/05/26 09:43:19;;;;;;;3.88;0.90;;;19.30;99.90;;;;;;5023425;28;20051;-68
2022/05/26 09:45:52;;;;;;;3.30;0.73;;;19.20;99.90;;;;;;5030277;28;20125;-68
2022/05/26 09:48:33;;;;;;;1.85;0.70;;;19.10;99.90;;;;;;5026958;28;20594;-68
2022/05/26 09:51:27;;;;;;;2.80;0.93;;;19.00;99.90;;;;;;5035743;28;20064;-68
2022/05/26 09:53:55;;;;;;;3.60;0.75;;;18.90;99.90;;;;;;5038268;28;20041;-68
2022/05/26 09:56:40;;;;;;;3.75;0.80;;;19.20;99.90;;;;;;5040729;28;20055;-69
2022/05/26 09:59:39;;;;;;;1.92;0.90;;;19.30;99.90;;;;;;5039770;28;20526;-67
2022/05/26 10:02:14;;;;;;;3.70;0.80;;;19.30;99.90;;;;;;5020986;28;20091;-69
2022/05/26 10:04:48;;;;;;;0.98;0.60;;;19.60;99.90;;;;;;5023812;28;20049;-68
2022/05/26 10:07:20;;;;;;;2.38;0.65;;;20.00;99.90;;;;;;5030153;28;20447;-69
2022/05/26 10:09:50;;;;;;;1.40;0.68;;;20.00;99.90;;;;;;5028389;28;20116;-69
2022/05/26 10:12:21;;;;;;;2.20;0.70;;;20.50;99.90;;;;;;5023240;28;20569;-68
2022/05/26 10:15:15;;;;;;;2.42;0.70;;;20.40;99.90;;;;;;5022286;28;20559;-67
2022/05/26 10:17:42;;;;;;;2.15;0.93;;;20.60;99.90;;;;;;5025922;28;20073;-66
2022/05/26 10:20:46;;;;;;;1.25;0.60;;;20.80;99.90;;;;;;5028974;28;20125;-68
2022/05/26 10:23:37;;;;;;;1.90;0.60;;;20.60;99.90;;;;;;5021902;28;20045;-68
2022/05/26 10:26:04;;;;;;;2.55;1.05;;;20.60;99.90;;;;;;5035399;28;20044;-66
2022/05/26 10:28:46;;;;;;;2.60;0.73;;;20.40;99.90;;;;;;5027392;28;20523;-68
2022/05/26 10:31:20;;;;;;;2.70;0.80;;;20.70;99.90;;;;;;5016359;28;20037;-67
2022/05/26 10:34:10;;;;;;;0.95;0.52;;;20.60;99.90;;;;;;5039189;28;20037;-67
2022/05/26 10:36:49;;;;;;;3.88;0.60;;;20.30;99.90;;;;;;5034744;28;20045;-68
2022/05/26 10:39:37;;;;;;;2.13;0.70;;;20.40;99.90;;;;;;5026499;28;20479;-67
2022/05/26 10:42:31;;;;;;;1.60;0.50;;;20.40;99.90;;;;;;5041902;28;20464;-68
2022/05/26 10:45:17;;;;;;;1.38;0.70;;;20.30;99.90;;;;;;5038407;28;20056;-67
2022/05/26 10:47:58;;;;;;;1.48;0.90;;;20.20;99.90;;;;;;5030628;28;20562;-66
2022/05/26 10:50:42;;;;;;;2.80;0.63;;;20.50;99.90;;;;;;5034760;28;20133;-67
2022/05/26 10:53:23;;;;;;;3.47;1.10;;;20.50;99.90;;;;;;5028324;28;20037;-67
2022/05/26 10:56:15;;;;;;;1.63;0.60;;;20.20;99.90;;;;;;5025511;28;20068;-67
2022/05/26 10:58:47;;;;;;;1.70;0.77;;;20.00;99.90;;;;;;5026168;28;20453;-68
2022/05/26 11:01:23;;;;;;;1.73;0.75;;;19.80;99.90;;;;;;5026867;28;20042;-67
2022/05/26 11:03:56;;;;;;;4.72;1.00;;;19.80;99.90;;;;;;5031258;28;20047;-67
2022/05/26 11:06:35;;;;;;;3.10;0.77;;;19.70;99.90;;;;;;5036630;28;20053;-68
2022/05/26 11:09:32;;;;;;;1.73;0.90;;;19.70;99.90;;;;;;5028839;28;20404;-67
2022/05/26 11:12:02;;;;;;;4.43;0.90;;;19.60;99.90;;;;;;5021268;28;20048;-69
2022/05/26 11:17:52;;;;;;;1.75;0.75;;;19.20;99.90;;;;;;5028032;28;20053;-67
2022/05/26 11:20:49;;;;;;;2.22;0.77;;;19.40;99.90;;;;;;5031712;28;20073;-68
2022/05/26 11:23:17;;;;;;;3.00;1.00;;;19.40;99.90;;;;;;5038933;28;20044;-68
2022/05/26 11:25:51;;;;;;;2.75;1.00;;;19.20;99.90;;;;;;5034155;28;20120;-68
2022/05/26 11:28:34;;;;;;;1.42;0.70;;;19.10;99.90;;;;;;5032752;28;20128;-68
2022/05/26 11:36:54;;;;;;;2.38;0.80;;;19.60;99.90;;;;;;5032202;28;20038;-69
2022/05/26 11:39:28;;;;;;;1.70;0.75;;;19.80;99.90;;;;;;5031070;28;20057;-68
2022/05/26 11:42:04;;;;;;;2.67;0.88;;;19.90;99.90;;;;;;5029344;28;20526;-67
2022/05/26 11:44:42;;;;;;;3.25;0.80;;;19.90;99.90;;;;;;5041722;28;20536;-68
2022/05/26 11:47:31;;;;;;;1.20;0.73;;;20.00;99.90;;;;;;5031356;28;20101;-68
2022/05/26 11:50:00;;;;;;;1.85;0.80;;;20.20;99.90;;;;;;5041093;28;20147;-67
2022/05/26 11:52:35;;;;;;;3.25;0.93;;;20.60;99.90;;;;;;5032416;28;20389;-67
2022/05/26 11:55:26;;;;;;;2.92;0.88;;;21.00;99.90;;;;;;5027172;28;20048;-67
2022/05/26 11:57:54;;;;;;;2.42;0.77;;;21.20;99.90;;;;;;5028448;28;20574;-68
2022/05/26 12:00:22;;;;;;;1.75;0.85;;;20.70;99.90;;;;;;5040515;28;20140;-68
2022/05/26 12:03:19;;;;;;;1.40;0.80;;;20.70;99.90;;;;;;5031954;28;20483;-67
2022/05/26 12:05:54;;;;;;;2.15;0.85;;;20.50;99.90;;;;;;4999217;28;20476;-67
2022/05/26 12:08:55;;;;;;;2.72;0.88;;;20.20;99.90;;;;;;5037927;28;20041;-68
2022/05/26 12:11:57;;;;;;;1.98;0.80;;;20.00;99.90;;;;;;5030384;28;20152;-67
2022/05/26 12:14:46;;;;;;;2.33;0.80;;;19.80;99.90;;;;;;5035698;28;20075;-67
2022/05/26 12:17:30;;;;;;;3.72;1.17;;;19.40;99.90;;;;;;5021274;28;20504;-67
2022/05/26 12:20:10;;;;;;;2.25;1.15;;;19.70;99.90;;;;;;5042741;28;20587;-68
2022/05/26 12:22:46;;;;;;;1.70;0.88;;;19.90;99.90;;;;;;5040305;28;20494;-68
2022/05/26 12:25:24;;;;;;;2.22;0.85;;;20.20;99.90;;;;;;5037897;28;20461;-68
2022/05/26 12:27:53;;;;;;;3.30;1.30;;;20.20;99.90;;;;;;5036993;28;20065;-68
2022/05/26 12:31:01;;;;;;;2.65;1.20;;;20.00;99.90;;;;;;5042019;28;20424;-68
2022/05/26 12:33:42;;;;;;;2.75;1.05;;;19.60;99.90;;;;;;5033487;28;20214;-69
2022/05/26 12:36:43;;;;;;;1.75;0.90;;;19.50;99.90;;;;;;5021041;28;20044;-68
2022/05/26 12:39:57;;;;;;;3.38;1.20;;;19.70;99.90;;;;;;5023823;28;20428;-68
2022/05/26 12:42:47;;;;;;;3.10;0.85;;;19.80;99.90;;;;;;5036222;28;20067;-67
2022/05/26 12:45:40;;;;;;;2.38;0.95;;;20.00;99.90;;;;;;5032835;28;20579;-67
2022/05/26 12:48:22;;;;;;;3.72;1.30;;;20.00;99.90;;;;;;5038230;28;20405;-68
2022/05/26 12:50:49;;;;;;;;;;;20.20;99.90;;;;;;5035311;28;20059;-67
2022/05/26 12:53:26;;;;;;;2.35;0.90;;;20.40;99.90;;;;;;5034813;28;19921;-67
2022/05/26 12:56:11;;;;;;;3.30;1.02;;;20.60;99.90;;;;;;5033963;28;20044;-67
2022/05/26 12:58:50;;;;;;;2.25;1.02;;;21.00;99.90;;;;;;5028392;28;20128;-66
2022/05/26 13:01:21;;;;;;;1.50;0.93;;;21.00;99.90;;;;;;5032848;28;20041;-67
2022/05/26 13:04:05;;;;;;;3.15;0.90;;;20.90;99.90;;;;;;5035203;28;20132;-67
2022/05/26 13:06:37;;;;;;;3.30;1.10;;;20.90;99.90;;;;;;5039335;28;20053;-67
2022/05/26 13:09:24;;;;;;;1.95;1.13;;;20.50;99.90;;;;;;5046438;28;20064;-66
2022/05/26 13:12:04;;;;;;;4.10;1.00;;;20.50;99.90;;;;;;5028127;28;20037;-66
2022/05/26 13:14:46;;;;;;;2.85;0.80;;;20.30;99.90;;;;;;5036562;28;20045;-67
2022/05/26 13:17:24;;;;;;;2.53;1.08;;;20.30;99.90;;;;;;5030501;28;20142;-67
2022/05/26 13:19:59;;;;;;;1.73;1.02;;;20.00;99.90;;;;;;5030660;28;20051;-68
2022/05/26 13:22:36;;;;;;;4.13;1.15;;;20.00;99.90;;;;;;5036354;28;20042;-67
2022/05/26 13:25:12;;;;;;;1.67;1.00;;;19.90;99.90;;;;;;5031208;28;20040;-67
2022/05/26 13:27:51;;;;;;;2.95;1.00;;;19.90;99.90;;;;;;5029989;28;20212;-66
2022/05/26 13:33:48;;;;;;;2.25;1.00;;;20.10;99.90;;;;;;5024434;28;20511;-66
2022/05/26 13:36:32;;;;;;;4.63;1.30;;;19.90;99.90;;;;;;5040537;28;20087;-66
2022/05/26 13:39:20;;;;;;;3.00;0.93;;;19.90;99.90;;;;;;5030447;28;20041;-67
2022/05/26 13:41:52;;;;;;;4.63;1.02;;;19.70;99.90;;;;;;5024270;28;20496;-67
2022/05/26 13:44:37;;;;;;;2.50;0.93;;;19.80;99.90;;;;;;5028569;28;20045;-68
2022/05/26 13:47:08;;;;;;;4.13;1.23;;;19.50;99.90;;;;;;5040640;28;20049;-67
2022/05/26 13:49:59;;;;;;;2.80;1.37;;;19.70;99.90;;;;;;5036223;28;20610;-67
2022/05/26 13:52:28;;;;;;;1.33;0.90;;;19.70;99.90;;;;;;5033473;28;20050;-67
2022/05/26 13:55:03;;;;;;;2.95;1.13;;;19.90;99.90;;;;;;5036613;28;20176;-67
2022/05/26 13:57:45;;;;;;;3.17;1.42;;;19.90;99.90;;;;;;5038134;28;20480;-68
2022/05/26 14:00:24;;;;;;;2.47;1.00;;;20.00;99.90;;;;;;5037660;28;20047;-68
2022/05/26 14:03:06;;;;;;;1.83;1.00;;;20.10;99.90;;;;;;5024214;28;20077;-68
2022/05/26 14:05:35;;;;;;;;;;;20.10;99.90;;;;;;5023120;28;20132;-67
2022/05/26 14:08:09;;;;;;;3.80;1.20;;;20.20;99.90;;;;;;5024309;28;20031;-67
2022/05/26 14:10:36;;;;;;;4.28;0.90;;;20.30;99.90;;;;;;5024697;28;20050;-66
2022/05/26 14:13:09;;;;;;;2.30;1.08;;;20.40;99.90;;;;;;5018025;28;20055;-66
2022/05/26 14:15:40;;;;;;;5.78;1.10;;;21.10;99.90;;;;;;5034418;28;20519;-66